Weather at Ireland West Knock Airport

Public forecast

Using degrees Celsius for public forecast. Weather courtesy of forecast.io.

Current aviation weather report (METAR) for Ireland West Knock Airport

Retrieved 2022/07/01 04:30 UTC (0 seconds ago):

EIKN 010430Z 20005KT 150V250 9999 FEW003 BKN030 10/09 Q1012 NOSIG

Aviation forecast (TAF) for Ireland West Knock Airport

Retrieved 2022-07-01 00:10 UTC (4 hours ago):

TAF EIKN 302300Z 0100/0124 29006KT 9999 FEW012 BKN035 PROB30 TEMPO 0103/0106 0700 FG BKN001 BECMG 0105/0107 18010KT BECMG 0108/0110 4000 -RA BKN010 TEMPO 0109/0115 2500 RA BKN005 BECMG 0112/0114 18014G25KT BECMG 0114/0116 21012KT TEMPO 0115/0117 2000 SHRA BKN004 SCT017CB BECMG 0116/0118 25010KT 9999 NSW FEW012 BKN017